createdAt,value
2019-05-12T00:00:32.051Z,8.80
2019-05-12T00:03:00.573Z,7.60
2019-05-12T00:05:29.032Z,6.97
2019-05-12T00:07:58.927Z,7.77
2019-05-12T00:10:28.431Z,9.47
2019-05-12T00:12:58.269Z,8.30
2019-05-12T00:15:27.943Z,6.73
2019-05-12T00:17:58.604Z,6.27
2019-05-12T00:20:28.370Z,6.73
2019-05-12T00:22:59.128Z,6.67
2019-05-12T00:25:28.356Z,7.43
2019-05-12T00:27:58.687Z,6.23
2019-05-12T00:30:44.130Z,7.50
2019-05-12T00:33:12.656Z,5.40
2019-05-12T00:35:41.194Z,8.67
2019-05-12T00:38:09.747Z,6.80
2019-05-12T00:40:39.140Z,5.90
2019-05-12T00:43:09.137Z,6.70
2019-05-12T00:45:39.671Z,6.07
2019-05-12T00:48:09.483Z,5.97
2019-05-12T00:50:38.499Z,10.77
2019-05-12T00:53:08.960Z,8.10
2019-05-12T00:55:39.221Z,5.53
2019-05-12T00:58:08.946Z,6.77
2019-05-12T01:00:41.176Z,13.00
2019-05-12T01:03:09.103Z,6.83
2019-05-12T01:05:38.572Z,9.73
2019-05-12T01:08:09.055Z,4.80
2019-05-12T01:10:39.119Z,7.00
2019-05-12T01:13:08.790Z,5.97
2019-05-12T01:15:38.265Z,7.13
2019-05-12T01:18:09.315Z,5.23
2019-05-12T01:20:38.846Z,8.83
2019-05-12T01:23:08.699Z,6.37
2019-05-12T01:25:41.723Z,7.70
2019-05-12T01:28:10.205Z,11.87
2019-05-12T01:30:39.299Z,6.87
2019-05-12T01:33:08.687Z,7.43
2019-05-12T01:35:38.845Z,9.00
2019-05-12T01:38:08.434Z,5.60
2019-05-12T01:40:39.412Z,8.60
2019-05-12T01:43:08.900Z,7.20
2019-05-12T01:45:38.096Z,6.80
2019-05-12T01:48:09.103Z,6.33
2019-05-12T01:50:38.965Z,7.50
2019-05-12T01:53:08.492Z,9.17
2019-05-12T01:55:38.989Z,6.43
2019-05-12T01:58:09.037Z,9.13
2019-05-12T02:00:39.150Z,14.83
2019-05-12T02:03:09.049Z,9.07
2019-05-12T02:05:40.419Z,8.20
2019-05-12T02:08:10.885Z,10.13
2019-05-12T02:10:39.598Z,6.50
2019-05-12T02:13:08.427Z,6.20
2019-05-12T02:15:38.359Z,6.47
2019-05-12T02:18:09.047Z,8.30
2019-05-12T02:20:38.163Z,8.53
2019-05-12T02:23:08.890Z,9.17
2019-05-12T02:25:38.225Z,7.50
2019-05-12T02:28:09.403Z,7.13
2019-05-12T02:30:41.070Z,4.67
2019-05-12T02:33:07.695Z,7.67
2019-05-12T02:35:36.482Z,11.97
2019-05-12T02:38:05.450Z,11.13
2019-05-12T02:40:35.068Z,6.93
2019-05-12T02:43:05.591Z,6.20
2019-05-12T02:45:36.259Z,9.57
2019-05-12T02:48:05.738Z,7.83
2019-05-12T02:50:38.265Z,10.80
2019-05-12T02:53:07.681Z,6.43
2019-05-12T02:55:37.296Z,9.57
2019-05-12T02:58:06.664Z,7.43
2019-05-12T03:00:37.204Z,6.93
2019-05-12T03:03:09.313Z,8.10
2019-05-12T03:05:40.444Z,6.20
2019-05-12T03:08:08.973Z,6.27
2019-05-12T03:10:37.567Z,7.13
2019-05-12T03:13:06.056Z,5.50
2019-05-12T03:15:37.503Z,5.33
2019-05-12T03:18:06.921Z,6.43
2019-05-12T03:20:36.357Z,6.23
2019-05-12T03:23:06.638Z,7.33
2019-05-12T03:25:36.907Z,6.97
2019-05-12T03:28:08.514Z,6.53
2019-05-12T03:30:39.925Z,6.70
2019-05-12T03:33:10.430Z,4.93
2019-05-12T03:35:46.039Z,10.33
2019-05-12T03:38:08.337Z,8.20
2019-05-12T03:40:38.277Z,7.90
2019-05-12T03:43:07.074Z,7.33
2019-05-12T03:45:36.478Z,8.10
2019-05-12T03:48:06.352Z,7.30
2019-05-12T03:50:36.158Z,6.73
2019-05-12T03:53:10.091Z,10.93
2019-05-12T03:55:41.856Z,5.47
2019-05-12T03:58:07.170Z,7.47
2019-05-12T04:00:36.710Z,10.77
2019-05-12T04:03:06.347Z,8.70
2019-05-12T04:05:36.758Z,8.43
2019-05-12T04:08:06.732Z,5.20
2019-05-12T04:10:36.944Z,7.83
2019-05-12T04:13:05.937Z,7.40
2019-05-12T04:15:35.912Z,8.13
2019-05-12T04:18:06.022Z,6.10
2019-05-12T04:20:35.963Z,5.87
2019-05-12T04:23:06.401Z,9.03
2019-05-12T04:25:51.740Z,7.90
2019-05-12T04:28:05.764Z,11.03
2019-05-12T04:30:35.835Z,6.87
2019-05-12T04:33:05.979Z,7.03
2019-05-12T04:35:35.918Z,5.80
2019-05-12T04:38:05.478Z,7.47
2019-05-12T04:40:36.462Z,6.63
2019-05-12T04:43:06.659Z,9.20
2019-05-12T04:45:35.832Z,7.73
2019-05-12T04:48:06.094Z,6.87
2019-05-12T04:50:36.238Z,5.60
2019-05-12T04:53:07.787Z,11.00
2019-05-12T04:55:36.624Z,11.13
2019-05-12T04:58:06.238Z,8.83
2019-05-12T05:00:35.924Z,9.43
2019-05-12T05:03:06.098Z,6.80
2019-05-12T05:05:36.215Z,8.23
2019-05-12T05:08:05.600Z,8.57
2019-05-12T05:10:35.271Z,7.17
2019-05-12T05:13:05.619Z,9.87
2019-05-12T05:15:35.278Z,7.30
2019-05-12T05:18:06.651Z,12.07
2019-05-12T05:20:35.526Z,13.43
2019-05-12T05:23:05.148Z,6.77
2019-05-12T05:25:35.310Z,9.00
2019-05-12T05:28:05.057Z,7.27
2019-05-12T05:30:34.432Z,5.60
2019-05-12T05:33:04.641Z,5.37
2019-05-12T05:35:39.679Z,8.73
2019-05-12T05:38:05.641Z,5.33
2019-05-12T05:40:35.822Z,7.70
2019-05-12T05:43:12.699Z,5.28
2019-05-12T05:45:35.574Z,5.42
2019-05-12T05:48:09.722Z,4.55
2019-05-12T05:50:35.402Z,3.72
2019-05-12T05:53:09.100Z,3.90
2019-05-12T05:55:35.113Z,5.50
2019-05-12T05:58:08.758Z,6.53
2019-05-12T06:00:38.993Z,5.15
2019-05-12T06:03:05.573Z,4.28
2019-05-12T06:05:38.205Z,10.80
2019-05-12T06:08:09.413Z,10.58
2019-05-12T06:10:39.831Z,7.35
2019-05-12T06:13:05.241Z,3.83
2019-05-12T06:15:40.363Z,6.08
2019-05-12T06:18:05.830Z,4.90
2019-05-12T06:20:37.680Z,3.92
2019-05-12T06:23:04.746Z,5.78
2019-05-12T06:25:45.588Z,5.17
2019-05-12T06:28:08.383Z,3.87
2019-05-12T06:30:43.786Z,3.92
2019-05-12T06:33:06.036Z,3.55
2019-05-12T06:35:37.313Z,5.42
2019-05-12T06:38:05.283Z,3.95
2019-05-12T06:40:40.409Z,2.75
2019-05-12T06:43:04.853Z,3.72
2019-05-12T06:45:42.163Z,3.27
2019-05-12T06:48:05.088Z,5.40
2019-05-12T06:50:39.135Z,4.10
2019-05-12T06:53:05.409Z,4.08
2019-05-12T06:55:38.972Z,3.42
2019-05-12T06:58:05.665Z,4.95
2019-05-12T07:00:35.381Z,3.50
2019-05-12T07:03:05.474Z,4.25
2019-05-12T07:05:38.557Z,1.72
2019-05-12T07:08:06.860Z,2.58
2019-05-12T07:10:42.666Z,4.58
2019-05-12T07:13:06.398Z,3.72
2019-05-12T07:15:40.182Z,11.18
2019-05-12T07:18:07.245Z,3.52
2019-05-12T07:20:38.950Z,2.77
2019-05-12T07:23:06.038Z,1.40
2019-05-12T07:25:36.716Z,1.70
2019-05-12T07:28:08.379Z,1.10
2019-05-12T07:30:37.226Z,1.82
2019-05-12T07:33:07.353Z,1.98
2019-05-12T07:35:36.098Z,1.22
2019-05-12T07:38:05.124Z,3.52
2019-05-12T07:40:37.478Z,3.45
2019-05-12T07:43:09.851Z,4.55
2019-05-12T07:45:35.070Z,2.57
2019-05-12T07:48:08.492Z,5.30
2019-05-12T07:50:34.545Z,2.03
2019-05-12T07:53:04.404Z,1.40
2019-05-12T07:55:39.832Z,2.00
2019-05-12T07:58:13.823Z,2.33
2019-05-12T08:00:44.206Z,1.60
2019-05-12T08:03:19.039Z,2.65
2019-05-12T08:05:51.206Z,1.80
2019-05-12T08:08:23.600Z,0.97
2019-05-12T08:10:57.389Z,3.63
2019-05-12T08:13:25.922Z,1.13
2019-05-12T08:15:56.415Z,1.23
2019-05-12T08:18:24.808Z,3.00
2019-05-12T08:20:54.023Z,3.90
2019-05-12T08:23:23.482Z,2.08
2019-05-12T08:25:54.968Z,3.90
2019-05-12T08:28:27.833Z,0.90
2019-05-12T08:30:54.998Z,1.73
2019-05-12T08:33:24.610Z,2.40
2019-05-12T08:35:55.378Z,1.00
2019-05-12T08:38:24.881Z,0.90
2019-05-12T08:40:54.305Z,1.60
2019-05-12T08:43:24.071Z,1.87
2019-05-12T08:45:53.615Z,6.37
2019-05-12T08:48:24.989Z,1.50
2019-05-12T08:50:54.528Z,2.77
2019-05-12T08:53:25.843Z,2.07
2019-05-12T08:55:56.150Z,1.17
2019-05-12T08:58:31.623Z,1.07
2019-05-12T09:00:55.008Z,0.60
2019-05-12T09:03:30.305Z,1.80
2019-05-12T09:05:59.655Z,1.73
2019-05-12T09:08:37.933Z,1.02
2019-05-12T09:11:03.567Z,2.72
2019-05-12T09:13:33.870Z,2.55
2019-05-12T09:16:04.366Z,3.27
2019-05-12T09:18:35.063Z,3.07
2019-05-12T09:21:03.721Z,1.83
2019-05-12T09:23:40.799Z,1.73
2019-05-12T09:26:04.145Z,1.97
2019-05-12T09:28:44.363Z,2.90
2019-05-12T09:31:03.725Z,3.87
2019-05-12T09:33:34.591Z,2.17
2019-05-12T09:36:04.289Z,1.47
2019-05-12T09:38:33.245Z,3.77
2019-05-12T09:41:03.270Z,3.08
2019-05-12T09:43:34.230Z,3.55
2019-05-12T09:46:04.208Z,5.50
2019-05-12T09:48:33.492Z,2.58
2019-05-12T09:51:05.060Z,1.65
2019-05-12T09:53:34.124Z,0.98
2019-05-12T09:56:04.494Z,2.47
2019-05-12T09:58:33.734Z,2.72
2019-05-12T10:01:24.034Z,2.37
2019-05-12T10:03:54.380Z,0.80
2019-05-12T10:06:24.570Z,2.62
2019-05-12T10:08:54.924Z,3.65
2019-05-12T10:11:23.702Z,1.65
2019-05-12T10:13:54.236Z,3.67
2019-05-12T10:16:24.139Z,3.20
2019-05-12T10:18:54.656Z,2.55
2019-05-12T10:21:23.792Z,2.95
2019-05-12T10:24:00.113Z,2.58
2019-05-12T10:26:23.056Z,1.25
2019-05-12T10:28:57.894Z,1.87
2019-05-12T10:31:24.116Z,3.42
2019-05-12T10:33:57.147Z,3.27
2019-05-12T10:36:24.281Z,1.07
2019-05-12T10:38:53.805Z,0.90
2019-05-12T10:41:23.678Z,3.50
2019-05-12T10:43:54.444Z,1.57
2019-05-12T10:46:26.782Z,2.07
2019-05-12T10:48:53.907Z,6.70
2019-05-12T10:51:23.870Z,1.77
2019-05-12T10:53:59.802Z,1.27
2019-05-12T10:56:24.657Z,3.42
2019-05-12T10:58:53.642Z,1.98
2019-05-12T11:01:24.556Z,2.37
2019-05-12T11:03:54.662Z,3.98
2019-05-12T11:06:44.755Z,1.40
2019-05-12T11:09:10.929Z,1.30
2019-05-12T11:11:43.680Z,1.42
2019-05-12T11:14:09.920Z,1.53
2019-05-12T11:16:44.632Z,2.75
2019-05-12T11:19:13.735Z,2.10
2019-05-12T11:21:44.273Z,1.62
2019-05-12T11:24:13.795Z,2.70
2019-05-12T11:26:43.237Z,2.42
2019-05-12T11:29:14.025Z,1.98
2019-05-12T11:31:45.352Z,0.93
2019-05-12T11:34:33.172Z,2.15
2019-05-12T11:37:03.436Z,2.75
2019-05-12T11:39:37.170Z,4.55
2019-05-12T11:42:07.665Z,1.45
2019-05-12T11:44:36.436Z,1.77
2019-05-12T11:47:04.907Z,3.37
2019-05-12T11:49:38.350Z,3.33
2019-05-12T11:52:13.312Z,5.90
2019-05-12T11:54:41.257Z,4.33
2019-05-12T11:57:06.947Z,0.97
2019-05-12T11:59:35.410Z,2.47
2019-05-12T12:02:04.390Z,2.33
2019-05-12T12:04:47.695Z,2.67
2019-05-12T12:07:23.934Z,3.40
2019-05-12T12:09:59.254Z,2.27
2019-05-12T12:12:34.616Z,1.27
2019-05-12T12:15:06.098Z,2.33
2019-05-12T12:17:35.757Z,1.70
2019-05-12T12:20:06.803Z,1.72
2019-05-12T12:22:36.971Z,2.77
2019-05-12T12:25:10.681Z,2.37
2019-05-12T12:27:36.502Z,1.57
2019-05-12T12:30:16.737Z,1.17
2019-05-12T12:32:37.322Z,3.47
2019-05-12T12:35:11.009Z,2.83
2019-05-12T12:37:37.232Z,0.70
2019-05-12T12:40:06.162Z,2.83
2019-05-12T12:42:36.923Z,1.40
2019-05-12T12:45:16.937Z,2.03
2019-05-12T12:47:49.185Z,1.98
2019-05-12T12:50:20.342Z,3.23
2019-05-12T12:52:48.809Z,10.45
2019-05-12T12:55:16.278Z,1.27
2019-05-12T12:57:46.395Z,1.77
2019-05-12T13:00:28.968Z,1.90
2019-05-12T13:02:49.249Z,1.75
2019-05-12T13:05:16.182Z,2.47
2019-05-12T13:07:44.657Z,1.57
2019-05-12T13:10:14.502Z,3.50
2019-05-12T13:12:43.677Z,2.47
2019-05-12T13:15:14.495Z,1.82
2019-05-12T13:17:44.761Z,1.72
2019-05-12T13:20:13.966Z,2.35
2019-05-12T13:22:44.391Z,3.40
2019-05-12T13:25:14.225Z,2.58
2019-05-12T13:27:43.118Z,1.62
2019-05-12T13:30:19.875Z,3.22
2019-05-12T13:32:44.154Z,5.40
2019-05-12T13:35:16.276Z,4.65
2019-05-12T13:37:44.312Z,3.50
2019-05-12T13:40:13.465Z,2.25
2019-05-12T13:43:03.731Z,3.83
2019-05-12T13:45:33.481Z,4.67
2019-05-12T13:48:03.744Z,1.10
2019-05-12T13:50:31.952Z,1.42
2019-05-12T13:53:01.276Z,0.65
2019-05-12T13:55:30.688Z,3.72
2019-05-12T13:57:59.262Z,2.58
2019-05-12T14:00:27.733Z,2.30
2019-05-12T14:03:03.195Z,3.47
2019-05-12T14:05:26.431Z,3.42
2019-05-12T14:07:55.638Z,1.87
2019-05-12T14:10:27.132Z,3.25
2019-05-12T14:12:55.418Z,3.00
2019-05-12T14:15:24.911Z,1.98
2019-05-12T14:17:59.755Z,3.40
2019-05-12T14:20:28.395Z,2.12
2019-05-12T14:22:56.889Z,2.57
2019-05-12T14:25:30.334Z,5.40
2019-05-12T14:27:59.267Z,3.17
2019-05-12T14:30:25.826Z,7.08
2019-05-12T14:32:58.981Z,3.60
2019-05-12T14:35:24.624Z,2.08
2019-05-12T14:37:55.081Z,4.80
2019-05-12T14:40:29.920Z,3.37
2019-05-12T14:42:54.351Z,2.20
2019-05-12T14:45:28.241Z,2.33
2019-05-12T14:47:54.063Z,5.53
2019-05-12T14:50:22.902Z,2.90
2019-05-12T14:52:55.924Z,4.47
2019-05-12T14:55:24.054Z,3.90
2019-05-12T14:57:52.009Z,5.87
2019-05-12T15:00:23.649Z,1.67
2019-05-12T15:02:51.257Z,4.57
2019-05-12T15:05:20.289Z,2.33
2019-05-12T15:07:51.513Z,3.40
2019-05-12T15:10:19.140Z,8.08
2019-05-12T15:12:48.477Z,2.23
2019-05-12T15:15:20.566Z,4.22
2019-05-12T15:17:48.374Z,1.87
2019-05-12T15:20:17.655Z,1.23
2019-05-12T15:22:51.548Z,1.60
2019-05-12T15:25:16.583Z,1.80
2019-05-12T15:27:48.197Z,4.50
2019-05-12T15:30:22.849Z,1.55
2019-05-12T15:32:46.256Z,2.42
2019-05-12T15:35:17.945Z,3.17
2019-05-12T15:37:44.974Z,5.67
2019-05-12T15:40:14.827Z,1.67
2019-05-12T15:42:45.352Z,13.72
2019-05-12T15:45:16.396Z,5.80
2019-05-12T15:47:44.945Z,3.85
2019-05-12T15:50:14.613Z,1.92
2019-05-12T15:52:45.501Z,2.10
2019-05-12T15:55:17.769Z,2.45
2019-05-12T15:57:45.050Z,2.37
2019-05-12T16:00:16.996Z,2.12
2019-05-12T16:02:44.641Z,3.25
2019-05-12T16:05:14.822Z,1.57
2019-05-12T16:07:47.646Z,1.45
2019-05-12T16:10:15.658Z,2.77
2019-05-12T16:12:44.262Z,3.73
2019-05-12T16:15:17.100Z,1.10
2019-05-12T16:17:44.356Z,2.83
2019-05-12T16:20:15.627Z,5.65
2019-05-12T16:22:45.017Z,8.80
2019-05-12T16:25:15.558Z,1.73
2019-05-12T16:27:46.119Z,1.82
2019-05-12T16:30:15.492Z,1.42
2019-05-12T16:32:47.580Z,3.83
2019-05-12T16:35:14.876Z,1.30
2019-05-12T16:37:44.640Z,1.00
2019-05-12T16:40:14.076Z,3.92
2019-05-12T16:42:50.335Z,1.77
2019-05-12T16:45:14.699Z,4.00
2019-05-12T16:47:44.713Z,1.80
2019-05-12T16:50:19.649Z,1.13
2019-05-12T16:52:45.708Z,1.10
2019-05-12T16:55:14.594Z,1.95
2019-05-12T16:57:51.243Z,1.30
2019-05-12T17:00:15.741Z,3.27
2019-05-12T17:02:51.915Z,4.00
2019-05-12T17:05:20.135Z,2.70
2019-05-12T17:07:45.190Z,1.63
2019-05-12T17:10:16.600Z,7.23
2019-05-12T17:12:44.399Z,3.87
2019-05-12T17:15:14.888Z,4.53
2019-05-12T17:17:44.664Z,2.60
2019-05-12T17:20:16.807Z,2.10
2019-05-12T17:22:54.055Z,1.47
2019-05-12T17:25:15.778Z,0.90
2019-05-12T17:27:45.144Z,0.80
2019-05-12T17:30:19.970Z,3.17
2019-05-12T17:32:57.780Z,2.87
2019-05-12T17:35:26.918Z,4.05
2019-05-12T17:37:53.510Z,1.50
2019-05-12T17:40:24.226Z,1.87
2019-05-12T17:42:59.423Z,2.07
2019-05-12T17:45:25.375Z,1.20
2019-05-12T17:48:02.991Z,0.70
2019-05-12T17:50:27.281Z,2.63
2019-05-12T17:53:04.511Z,0.77
2019-05-12T17:55:32.923Z,2.10
2019-05-12T17:58:01.384Z,3.77
2019-05-12T18:00:30.885Z,2.50
2019-05-12T18:03:14.730Z,2.03
2019-05-12T18:05:29.646Z,5.93
2019-05-12T18:07:58.230Z,3.17
2019-05-12T18:10:26.710Z,1.33
2019-05-12T18:12:55.216Z,5.03
2019-05-12T18:15:32.479Z,5.07
2019-05-12T18:17:57.710Z,2.23
2019-05-12T18:20:31.091Z,3.27
2019-05-12T18:23:04.383Z,1.70
2019-05-12T18:25:32.720Z,1.93
2019-05-12T18:28:03.539Z,7.07
2019-05-12T18:30:31.411Z,4.00
2019-05-12T18:33:04.520Z,3.73
2019-05-12T18:35:30.142Z,2.97
2019-05-12T18:37:58.805Z,1.40
2019-05-12T18:40:28.217Z,2.80
2019-05-12T18:42:58.530Z,4.77
2019-05-12T18:45:27.155Z,2.53
2019-05-12T18:47:55.763Z,1.90
2019-05-12T18:50:27.211Z,3.27
2019-05-12T18:52:54.510Z,3.83
2019-05-12T18:55:23.566Z,1.07
2019-05-12T18:57:54.375Z,2.83
2019-05-12T19:00:24.433Z,2.33
2019-05-12T19:02:54.482Z,2.73
2019-05-12T19:05:30.375Z,6.80
2019-05-12T19:07:54.353Z,4.27
2019-05-12T19:10:24.078Z,2.07
2019-05-12T19:13:01.125Z,3.63
2019-05-12T19:15:23.111Z,1.50
2019-05-12T19:17:51.607Z,2.73
2019-05-12T19:20:20.787Z,5.10
2019-05-12T19:22:57.444Z,6.80
2019-05-12T19:25:19.694Z,3.83
2019-05-12T19:27:55.188Z,2.77
2019-05-12T19:30:27.140Z,8.10
2019-05-12T19:33:00.107Z,2.53
2019-05-12T19:35:37.721Z,3.30
2019-05-12T19:38:15.160Z,6.27
2019-05-12T19:40:55.246Z,3.17
2019-05-12T19:43:23.723Z,5.20
2019-05-12T19:45:53.692Z,2.63
2019-05-12T19:48:27.159Z,4.63
2019-05-12T19:50:56.936Z,1.90
2019-05-12T19:53:23.927Z,5.20
2019-05-12T19:55:52.805Z,4.00
2019-05-12T19:58:23.676Z,1.63
2019-05-12T20:00:51.652Z,7.63
2019-05-12T20:03:20.119Z,3.00
2019-05-12T20:05:48.614Z,3.03
2019-05-12T20:08:17.465Z,3.20
2019-05-12T20:10:49.364Z,2.47
2019-05-12T20:13:16.242Z,3.08
2019-05-12T20:15:44.870Z,3.67
2019-05-12T20:18:14.704Z,3.60
2019-05-12T20:20:44.768Z,2.53
2019-05-12T20:23:14.246Z,7.20
2019-05-12T20:25:44.274Z,7.57
2019-05-12T20:28:14.497Z,2.50
2019-05-12T20:30:44.222Z,2.60
2019-05-12T20:33:13.756Z,2.40
2019-05-12T20:35:45.109Z,3.40
2019-05-12T20:38:16.038Z,3.77
2019-05-12T20:40:48.227Z,2.93
2019-05-12T20:43:16.782Z,2.90
2019-05-12T20:45:45.848Z,4.20
2019-05-12T20:48:26.377Z,3.13
2019-05-12T20:50:52.573Z,4.70
2019-05-12T20:53:31.886Z,5.57
2019-05-12T20:56:03.732Z,4.80
2019-05-12T20:58:43.075Z,7.53
2019-05-12T21:01:05.333Z,9.00
2019-05-12T21:03:34.466Z,1.90
2019-05-12T21:06:04.365Z,7.73
2019-05-12T21:08:35.289Z,5.63
2019-05-12T21:11:08.880Z,4.03
2019-05-12T21:13:49.988Z,2.83
2019-05-12T21:16:20.455Z,2.77
2019-05-12T21:18:56.205Z,6.23
2019-05-12T21:21:25.170Z,4.42
2019-05-12T21:24:11.026Z,5.57
2019-05-12T21:26:39.497Z,3.90
2019-05-12T21:29:08.055Z,3.27
2019-05-12T21:31:36.728Z,5.00
2019-05-12T21:34:06.831Z,5.03
2019-05-12T21:36:35.489Z,6.90
2019-05-12T21:39:10.496Z,4.17
2019-05-12T21:41:40.606Z,3.37
2019-05-12T21:44:14.485Z,3.13
2019-05-12T21:46:46.977Z,2.97
2019-05-12T21:49:15.640Z,5.07
2019-05-12T21:51:44.642Z,7.47
2019-05-12T21:54:13.660Z,4.80
2019-05-12T21:56:45.006Z,5.17
2019-05-12T21:59:15.479Z,7.50
2019-05-12T22:01:45.966Z,6.00
2019-05-12T22:04:14.397Z,5.10
2019-05-12T22:06:43.801Z,5.43
2019-05-12T22:09:14.597Z,5.40
2019-05-12T22:11:51.279Z,5.07
2019-05-12T22:14:13.650Z,8.75
2019-05-12T22:16:46.830Z,3.93
2019-05-12T22:19:14.287Z,3.97
2019-05-12T22:21:49.350Z,5.77
2019-05-12T22:24:27.581Z,6.80
2019-05-12T22:26:50.950Z,5.57
2019-05-12T22:29:21.265Z,6.37
2019-05-12T22:31:54.059Z,5.10
2019-05-12T22:34:27.372Z,7.87
2019-05-12T22:36:57.215Z,4.73
2019-05-12T22:39:23.356Z,4.00
2019-05-12T22:41:51.847Z,6.97
2019-05-12T22:44:22.216Z,6.50
2019-05-12T22:46:50.730Z,7.20
2019-05-12T22:49:21.004Z,4.03
2019-05-12T22:51:54.703Z,4.47
2019-05-12T22:54:19.598Z,4.97
2019-05-12T22:56:49.519Z,4.53
2019-05-12T22:59:18.270Z,7.60
2019-05-12T23:01:46.956Z,4.40
2019-05-12T23:04:15.855Z,5.23
2019-05-12T23:06:46.698Z,7.60
2019-05-12T23:09:19.371Z,5.47
2019-05-12T23:11:44.865Z,5.53
2019-05-12T23:14:20.725Z,4.08
2019-05-12T23:16:44.283Z,3.43
2019-05-12T23:19:15.071Z,4.10
2019-05-12T23:21:43.895Z,6.87
2019-05-12T23:24:14.109Z,4.17
2019-05-12T23:26:47.860Z,5.63
2019-05-12T23:29:14.547Z,5.50
2019-05-12T23:31:43.330Z,4.53
2019-05-12T23:34:14.339Z,5.73
2019-05-12T23:36:43.947Z,6.87
2019-05-12T23:39:14.247Z,5.67
2019-05-12T23:41:43.699Z,5.57
2019-05-12T23:44:13.581Z,6.57
2019-05-12T23:46:43.747Z,5.90
2019-05-12T23:49:14.377Z,8.13
2019-05-12T23:51:43.903Z,7.53
2019-05-12T23:54:14.377Z,4.37
2019-05-12T23:56:44.409Z,6.60
2019-05-12T23:59:13.592Z,5.00
